sensor_id;sensor_type;location;lat;lon;timestamp;pressure;altitude;pressure_sealevel;temperature;humidity
57050;BME280;42935;50.966;16.992;2023-04-24T00:00:47;100452.43;;;10.68;100.00
57050;BME280;42935;50.966;16.992;2023-04-24T00:04:14;100435.12;;;10.74;100.00
57050;BME280;42935;50.966;16.992;2023-04-24T00:07:44;100443.04;;;10.87;100.00
57050;BME280;42935;50.966;16.992;2023-04-24T00:11:09;100433.98;;;10.93;100.00
57050;BME280;42935;50.966;16.992;2023-04-24T00:14:32;100436.07;;;10.95;100.00
57050;BME280;42935;50.966;16.992;2023-04-24T00:17:58;100421.62;;;10.84;100.00
57050;BME280;42935;50.966;16.992;2023-04-24T00:21:21;100424.23;;;11.04;100.00
57050;BME280;42935;50.966;16.992;2023-04-24T00:24:48;100417.75;;;11.01;100.00
57050;BME280;42935;50.966;16.992;2023-04-24T00:28:08;100418.62;;;11.06;100.00
57050;BME280;42935;50.966;16.992;2023-04-24T00:31:33;100418.70;;;11.01;100.00
57050;BME280;42935;50.966;16.992;2023-04-24T00:35:00;100410.30;;;11.11;100.00
57050;BME280;42935;50.966;16.992;2023-04-24T00:38:25;100411.91;;;11.06;100.00
57050;BME280;42935;50.966;16.992;2023-04-24T00:41:45;100412.68;;;11.06;100.00
57050;BME280;42935;50.966;16.992;2023-04-24T00:45:12;100410.22;;;11.15;100.00
57050;BME280;42935;50.966;16.992;2023-04-24T00:48:29;100404.48;;;11.03;100.00
57050;BME280;42935;50.966;16.992;2023-04-24T00:51:53;100410.34;;;10.90;100.00
57050;BME280;42935;50.966;16.992;2023-04-24T00:55:15;100411.65;;;10.92;100.00
57050;BME280;42935;50.966;16.992;2023-04-24T00:58:42;100393.48;;;10.65;100.00
57050;BME280;42935;50.966;16.992;2023-04-24T01:02:02;100409.91;;;10.86;100.00
57050;BME280;42935;50.966;16.992;2023-04-24T01:05:22;100407.52;;;10.83;100.00
57050;BME280;42935;50.966;16.992;2023-04-24T01:08:42;100378.46;;;10.71;100.00
57050;BME280;42935;50.966;16.992;2023-04-24T01:12:08;100402.30;;;10.78;100.00
57050;BME280;42935;50.966;16.992;2023-04-24T01:15:32;100395.76;;;10.74;100.00
57050;BME280;42935;50.966;16.992;2023-04-24T01:18:49;100384.30;;;10.80;100.00
57050;BME280;42935;50.966;16.992;2023-04-24T01:22:14;100386.24;;;10.70;100.00
57050;BME280;42935;50.966;16.992;2023-04-24T01:25:36;100378.70;;;10.55;100.00
57050;BME280;42935;50.966;16.992;2023-04-24T01:29:00;100387.19;;;10.63;100.00
57050;BME280;42935;50.966;16.992;2023-04-24T01:32:21;100383.69;;;10.71;100.00
57050;BME280;42935;50.966;16.992;2023-04-24T01:35:42;100377.18;;;10.80;100.00
57050;BME280;42935;50.966;16.992;2023-04-24T01:39:06;100377.24;;;10.74;100.00
57050;BME280;42935;50.966;16.992;2023-04-24T01:42:27;100376.80;;;10.82;100.00
57050;BME280;42935;50.966;16.992;2023-04-24T01:45:44;100377.56;;;10.77;100.00
57050;BME280;42935;50.966;16.992;2023-04-24T01:49:08;100360.91;;;10.73;100.00
57050;BME280;42935;50.966;16.992;2023-04-24T01:52:26;100335.26;;;10.52;100.00
57050;BME280;42935;50.966;16.992;2023-04-24T01:55:54;100366.12;;;10.75;100.00
57050;BME280;42935;50.966;16.992;2023-04-24T01:59:17;100367.34;;;10.74;100.00
57050;BME280;42935;50.966;16.992;2023-04-24T02:02:40;100361.42;;;10.78;100.00
57050;BME280;42935;50.966;16.992;2023-04-24T02:06:05;100355.29;;;10.83;100.00
57050;BME280;42935;50.966;16.992;2023-04-24T02:09:27;100349.28;;;10.81;100.00
57050;BME280;42935;50.966;16.992;2023-04-24T02:12:49;100352.81;;;10.87;100.00
57050;BME280;42935;50.966;16.992;2023-04-24T02:16:11;100346.70;;;10.88;100.00
57050;BME280;42935;50.966;16.992;2023-04-24T02:19:41;100336.98;;;10.87;100.00
57050;BME280;42935;50.966;16.992;2023-04-24T02:23:03;100341.91;;;10.89;100.00
57050;BME280;42935;50.966;16.992;2023-04-24T02:26:33;100333.11;;;10.82;100.00
57050;BME280;42935;50.966;16.992;2023-04-24T02:29:53;100326.53;;;10.88;100.00
57050;BME280;42935;50.966;16.992;2023-04-24T02:33:23;100324.18;;;10.89;100.00
57050;BME280;42935;50.966;16.992;2023-04-24T02:36:47;100309.68;;;10.94;100.00
57050;BME280;42935;50.966;16.992;2023-04-24T02:40:09;100311.93;;;11.01;100.00
57050;BME280;42935;50.966;16.992;2023-04-24T02:43:28;100303.75;;;11.05;100.00
57050;BME280;42935;50.966;16.992;2023-04-24T02:46:48;100301.70;;;11.03;100.00
57050;BME280;42935;50.966;16.992;2023-04-24T02:50:14;100293.97;;;11.05;100.00
57050;BME280;42935;50.966;16.992;2023-04-24T02:53:41;100301.72;;;11.12;100.00
57050;BME280;42935;50.966;16.992;2023-04-24T02:56:58;100291.70;;;11.11;100.00
57050;BME280;42935;50.966;16.992;2023-04-24T03:00:18;100298.97;;;11.15;100.00
57050;BME280;42935;50.966;16.992;2023-04-24T03:03:38;100297.46;;;11.23;100.00
57050;BME280;42935;50.966;16.992;2023-04-24T03:07:04;100290.70;;;11.15;100.00
57050;BME280;42935;50.966;16.992;2023-04-24T03:10:23;100298.49;;;11.24;100.00
57050;BME280;42935;50.966;16.992;2023-04-24T03:13:44;100289.39;;;11.28;100.00
57050;BME280;42935;50.966;16.992;2023-04-24T03:17:00;100301.63;;;11.24;100.00
57050;BME280;42935;50.966;16.992;2023-04-24T03:20:22;100310.03;;;11.18;100.00
57050;BME280;42935;50.966;16.992;2023-04-24T03:23:43;100307.02;;;11.14;100.00
57050;BME280;42935;50.966;16.992;2023-04-24T03:27:08;100313.08;;;11.27;100.00
57050;BME280;42935;50.966;16.992;2023-04-24T03:30:28;100311.96;;;11.16;100.00
57050;BME280;42935;50.966;16.992;2023-04-24T03:33:50;100329.27;;;11.27;100.00
57050;BME280;42935;50.966;16.992;2023-04-24T03:37:08;100320.87;;;11.26;100.00
57050;BME280;42935;50.966;16.992;2023-04-24T03:40:29;100320.14;;;11.09;100.00
57050;BME280;42935;50.966;16.992;2023-04-24T03:43:47;100321.21;;;10.82;100.00
57050;BME280;42935;50.966;16.992;2023-04-24T03:47:12;100317.01;;;10.85;100.00
57050;BME280;42935;50.966;16.992;2023-04-24T03:50:33;100331.80;;;10.89;100.00
57050;BME280;42935;50.966;16.992;2023-04-24T03:53:57;100337.82;;;10.78;100.00
57050;BME280;42935;50.966;16.992;2023-04-24T03:57:21;100339.84;;;10.74;100.00
57050;BME280;42935;50.966;16.992;2023-04-24T04:00:49;100332.41;;;10.53;100.00
57050;BME280;42935;50.966;16.992;2023-04-24T04:04:43;100342.18;;;10.64;100.00
57050;BME280;42935;50.966;16.992;2023-04-24T04:08:02;100343.76;;;10.74;100.00
57050;BME280;42935;50.966;16.992;2023-04-24T04:11:26;100345.59;;;10.52;100.00
57050;BME280;42935;50.966;16.992;2023-04-24T04:14:54;100336.80;;;10.43;100.00
57050;BME280;42935;50.966;16.992;2023-04-24T04:18:09;100341.86;;;10.68;100.00
57050;BME280;42935;50.966;16.992;2023-04-24T04:21:27;100340.60;;;10.49;100.00
57050;BME280;42935;50.966;16.992;2023-04-24T04:24:45;100334.48;;;10.48;100.00
57050;BME280;42935;50.966;16.992;2023-04-24T04:28:09;100335.23;;;10.41;100.00
57050;BME280;42935;50.966;16.992;2023-04-24T04:31:29;100328.79;;;10.30;100.00
57050;BME280;42935;50.966;16.992;2023-04-24T04:34:49;100329.74;;;10.45;100.00
57050;BME280;42935;50.966;16.992;2023-04-24T04:38:43;100327.41;;;10.62;100.00
57050;BME280;42935;50.966;16.992;2023-04-24T04:42:01;100325.60;;;10.71;100.00
57050;BME280;42935;50.966;16.992;2023-04-24T04:45:21;100314.13;;;10.74;100.00
57050;BME280;42935;50.966;16.992;2023-04-24T04:48:47;100328.97;;;11.02;100.00
57050;BME280;42935;50.966;16.992;2023-04-24T04:52:07;100324.70;;;11.14;100.00
57050;BME280;42935;50.966;16.992;2023-04-24T04:55:31;100326.54;;;11.26;100.00
57050;BME280;42935;50.966;16.992;2023-04-24T04:58:55;100327.27;;;11.29;100.00
57050;BME280;42935;50.966;16.992;2023-04-24T05:02:19;100333.20;;;11.56;100.00
57050;BME280;42935;50.966;16.992;2023-04-24T05:05:43;100328.17;;;11.63;100.00
57050;BME280;42935;50.966;16.992;2023-04-24T05:09:07;100334.62;;;11.84;100.00
57050;BME280;42935;50.966;16.992;2023-04-24T05:12:29;100333.20;;;11.96;100.00
57050;BME280;42935;50.966;16.992;2023-04-24T05:15:55;100320.80;;;12.05;100.00
57050;BME280;42935;50.966;16.992;2023-04-24T05:19:17;100318.95;;;12.21;100.00
57050;BME280;42935;50.966;16.992;2023-04-24T05:22:36;100327.55;;;12.37;100.00
57050;BME280;42935;50.966;16.992;2023-04-24T05:25:58;100335.06;;;12.50;100.00
57050;BME280;42935;50.966;16.992;2023-04-24T05:29:20;100336.16;;;12.64;100.00
57050;BME280;42935;50.966;16.992;2023-04-24T05:32:40;100333.43;;;12.78;100.00
57050;BME280;42935;50.966;16.992;2023-04-24T05:35:58;100320.45;;;12.81;100.00
57050;BME280;42935;50.966;16.992;2023-04-24T05:39:19;100325.16;;;12.91;100.00
57050;BME280;42935;50.966;16.992;2023-04-24T05:43:07;100335.23;;;13.07;100.00
57050;BME280;42935;50.966;16.992;2023-04-24T05:46:23;100339.33;;;13.25;100.00
57050;BME280;42935;50.966;16.992;2023-04-24T05:49:39;100332.84;;;13.23;100.00
57050;BME280;42935;50.966;16.992;2023-04-24T05:52:59;100343.37;;;13.24;100.00
57050;BME280;42935;50.966;16.992;2023-04-24T05:56:24;100336.95;;;13.16;100.00
57050;BME280;42935;50.966;16.992;2023-04-24T05:59:49;100359.32;;;13.14;100.00
57050;BME280;42935;50.966;16.992;2023-04-24T06:03:14;100361.76;;;13.20;100.00
57050;BME280;42935;50.966;16.992;2023-04-24T06:06:35;100361.68;;;13.17;100.00
57050;BME280;42935;50.966;16.992;2023-04-24T06:09:55;100359.42;;;13.19;100.00
57050;BME280;42935;50.966;16.992;2023-04-24T06:13:18;100348.27;;;13.23;100.00
57050;BME280;42935;50.966;16.992;2023-04-24T06:16:42;100345.89;;;13.37;100.00
57050;BME280;42935;50.966;16.992;2023-04-24T06:20:05;100358.54;;;13.58;100.00
57050;BME280;42935;50.966;16.992;2023-04-24T06:23:26;100357.91;;;13.59;100.00
57050;BME280;42935;50.966;16.992;2023-04-24T06:26:46;100356.39;;;13.61;100.00
57050;BME280;42935;50.966;16.992;2023-04-24T06:30:04;100358.68;;;13.70;100.00
57050;BME280;42935;50.966;16.992;2023-04-24T06:33:25;100347.15;;;13.72;100.00
57050;BME280;42935;50.966;16.992;2023-04-24T06:36:43;100354.23;;;13.98;100.00
57050;BME280;42935;50.966;16.992;2023-04-24T06:40:30;100347.52;;;14.01;100.00
57050;BME280;42935;50.966;16.992;2023-04-24T06:43:49;100345.01;;;14.26;100.00
57050;BME280;42935;50.966;16.992;2023-04-24T06:47:06;100343.52;;;14.31;100.00
57050;BME280;42935;50.966;16.992;2023-04-24T06:50:27;100350.21;;;14.45;100.00
57050;BME280;42935;50.966;16.992;2023-04-24T06:53:52;100345.84;;;14.57;100.00
57050;BME280;42935;50.966;16.992;2023-04-24T06:57:13;100335.04;;;14.64;100.00
57050;BME280;42935;50.966;16.992;2023-04-24T07:00:38;100340.73;;;14.63;96.40
57050;BME280;42935;50.966;16.992;2023-04-24T07:03:58;100332.52;;;14.44;98.34
57050;BME280;42935;50.966;16.992;2023-04-24T07:07:24;100331.56;;;14.42;98.07
57050;BME280;42935;50.966;16.992;2023-04-24T07:10:45;100328.16;;;14.47;98.19
57050;BME280;42935;50.966;16.992;2023-04-24T07:14:03;100333.66;;;14.60;94.56
57050;BME280;42935;50.966;16.992;2023-04-24T07:17:23;100337.32;;;14.74;90.18
57050;BME280;42935;50.966;16.992;2023-04-24T07:20:40;100328.57;;;14.92;90.28
57050;BME280;42935;50.966;16.992;2023-04-24T07:23:59;100308.37;;;14.97;85.42
57050;BME280;42935;50.966;16.992;2023-04-24T07:27:15;100335.98;;;15.42;85.09
57050;BME280;42935;50.966;16.992;2023-04-24T07:30:36;100334.34;;;15.66;81.48
57050;BME280;42935;50.966;16.992;2023-04-24T07:33:52;100332.67;;;15.74;78.53
57050;BME280;42935;50.966;16.992;2023-04-24T07:37:10;100332.16;;;15.65;75.54
57050;BME280;42935;50.966;16.992;2023-04-24T07:40:28;100330.70;;;15.52;75.45
57050;BME280;42935;50.966;16.992;2023-04-24T07:43:46;100332.81;;;15.51;73.79
57050;BME280;42935;50.966;16.992;2023-04-24T07:47:10;100342.76;;;15.69;74.20
57050;BME280;42935;50.966;16.992;2023-04-24T07:50:30;100328.03;;;15.58;73.98
57050;BME280;42935;50.966;16.992;2023-04-24T07:53:55;100344.33;;;15.70;76.92
57050;BME280;42935;50.966;16.992;2023-04-24T07:57:19;100341.07;;;15.72;79.76
57050;BME280;42935;50.966;16.992;2023-04-24T08:00:41;100347.38;;;15.71;80.18
57050;BME280;42935;50.966;16.992;2023-04-24T08:03:58;100348.19;;;15.71;79.83
57050;BME280;42935;50.966;16.992;2023-04-24T08:07:24;100348.02;;;15.72;78.71
57050;BME280;42935;50.966;16.992;2023-04-24T08:10:44;100348.18;;;15.68;80.75
57050;BME280;42935;50.966;16.992;2023-04-24T08:14:07;100315.38;;;15.45;81.66
57050;BME280;42935;50.966;16.992;2023-04-24T08:17:27;100353.01;;;15.49;80.00
57050;BME280;42935;50.966;16.992;2023-04-24T08:20:45;100346.25;;;15.42;80.39
57050;BME280;42935;50.966;16.992;2023-04-24T08:24:01;100358.52;;;15.44;84.83
57050;BME280;42935;50.966;16.992;2023-04-24T08:27:56;100360.87;;;15.51;88.50
57050;BME280;42935;50.966;16.992;2023-04-24T08:31:17;100346.72;;;15.36;90.02
57050;BME280;42935;50.966;16.992;2023-04-24T08:34:38;100368.00;;;15.46;92.15
57050;BME280;42935;50.966;16.992;2023-04-24T08:38:02;100359.18;;;15.24;99.28
57050;BME280;42935;50.966;16.992;2023-04-24T08:41:18;100359.47;;;15.35;100.00
57050;BME280;42935;50.966;16.992;2023-04-24T08:44:44;100348.52;;;15.22;100.00
57050;BME280;42935;50.966;16.992;2023-04-24T08:48:09;100347.39;;;15.33;100.00
57050;BME280;42935;50.966;16.992;2023-04-24T08:51:29;100343.07;;;15.27;100.00
57050;BME280;42935;50.966;16.992;2023-04-24T08:54:51;100364.56;;;15.82;100.00
57050;BME280;42935;50.966;16.992;2023-04-24T08:58:09;100353.63;;;16.08;100.00
57050;BME280;42935;50.966;16.992;2023-04-24T09:01:32;100361.84;;;15.66;100.00
57050;BME280;42935;50.966;16.992;2023-04-24T09:04:53;100358.91;;;15.66;100.00
57050;BME280;42935;50.966;16.992;2023-04-24T09:08:24;100363.39;;;15.99;100.00
57050;BME280;42935;50.966;16.992;2023-04-24T09:12:13;100372.74;;;16.12;100.00
57050;BME280;42935;50.966;16.992;2023-04-24T09:15:41;100376.30;;;16.65;97.57
57050;BME280;42935;50.966;16.992;2023-04-24T09:18:57;100379.97;;;16.84;94.13
57050;BME280;42935;50.966;16.992;2023-04-24T09:22:17;100377.21;;;16.07;99.16
57050;BME280;42935;50.966;16.992;2023-04-24T09:25:42;100367.78;;;15.95;100.00
57050;BME280;42935;50.966;16.992;2023-04-24T09:29:03;100353.07;;;16.14;100.00
57050;BME280;42935;50.966;16.992;2023-04-24T09:32:25;100371.40;;;16.39;95.30
57050;BME280;42935;50.966;16.992;2023-04-24T09:35:49;100370.45;;;16.36;98.86
57050;BME280;42935;50.966;16.992;2023-04-24T09:39:12;100360.23;;;16.70;94.66
57050;BME280;42935;50.966;16.992;2023-04-24T09:42:36;100358.41;;;16.43;94.93
57050;BME280;42935;50.966;16.992;2023-04-24T09:45:56;100352.05;;;16.24;95.24
57050;BME280;42935;50.966;16.992;2023-04-24T09:49:23;100350.70;;;16.10;99.67
57050;BME280;42935;50.966;16.992;2023-04-24T09:52:56;100346.28;;;15.98;100.00
57050;BME280;42935;50.966;16.992;2023-04-24T09:56:45;100344.24;;;15.54;100.00
57050;BME280;42935;50.966;16.992;2023-04-24T10:00:18;100357.95;;;15.87;100.00
57050;BME280;42935;50.966;16.992;2023-04-24T10:03:46;100359.57;;;16.17;100.00
57050;BME280;42935;50.966;16.992;2023-04-24T10:07:10;100354.21;;;16.22;100.00
57050;BME280;42935;50.966;16.992;2023-04-24T10:10:37;100352.76;;;16.35;100.00
57050;BME280;42935;50.966;16.992;2023-04-24T10:14:29;100342.98;;;16.14;99.42
57050;BME280;42935;50.966;16.992;2023-04-24T10:17:54;100327.91;;;15.66;99.86
57050;BME280;42935;50.966;16.992;2023-04-24T10:21:19;100348.84;;;15.82;98.31
57050;BME280;42935;50.966;16.992;2023-04-24T10:24:45;100331.35;;;15.84;96.16
57050;BME280;42935;50.966;16.992;2023-04-24T10:28:39;100345.28;;;16.11;94.19
57050;BME280;42935;50.966;16.992;2023-04-24T10:31:58;100353.26;;;16.07;93.87
57050;BME280;42935;50.966;16.992;2023-04-24T10:35:23;100347.37;;;16.58;95.07
57050;BME280;42935;50.966;16.992;2023-04-24T10:38:44;100350.25;;;16.49;86.52
57050;BME280;42935;50.966;16.992;2023-04-24T10:42:16;100357.90;;;16.61;94.79
57050;BME280;42935;50.966;16.992;2023-04-24T10:45:40;100361.14;;;16.76;85.79
57050;BME280;42935;50.966;16.992;2023-04-24T10:48:58;100357.81;;;16.38;82.45
57050;BME280;42935;50.966;16.992;2023-04-24T10:52:21;100360.80;;;16.21;83.96
57050;BME280;42935;50.966;16.992;2023-04-24T10:55:45;100350.31;;;16.23;86.59
57050;BME280;42935;50.966;16.992;2023-04-24T10:59:10;100351.28;;;16.16;84.94
57050;BME280;42935;50.966;16.992;2023-04-24T11:02:36;100346.39;;;15.89;85.57
57050;BME280;42935;50.966;16.992;2023-04-24T11:06:05;100334.52;;;15.45;88.67
57050;BME280;42935;50.966;16.992;2023-04-24T11:09:32;100344.37;;;16.01;89.08
57050;BME280;42935;50.966;16.992;2023-04-24T11:12:59;100345.17;;;16.24;85.97
57050;BME280;42935;50.966;16.992;2023-04-24T11:16:28;100339.46;;;16.51;85.45
57050;BME280;42935;50.966;16.992;2023-04-24T11:19:50;100328.41;;;16.42;78.77
57050;BME280;42935;50.966;16.992;2023-04-24T11:23:12;100325.41;;;17.15;78.91
57050;BME280;42935;50.966;16.992;2023-04-24T11:26:37;100333.86;;;17.05;76.90
57050;BME280;42935;50.966;16.992;2023-04-24T11:30:02;100337.64;;;16.95;74.19
57050;BME280;42935;50.966;16.992;2023-04-24T11:33:24;100344.94;;;16.15;72.72
57050;BME280;42935;50.966;16.992;2023-04-24T11:36:44;100348.61;;;16.91;75.29
57050;BME280;42935;50.966;16.992;2023-04-24T11:40:08;100345.98;;;17.23;74.21
57050;BME280;42935;50.966;16.992;2023-04-24T11:43:30;100345.28;;;16.22;75.91
57050;BME280;42935;50.966;16.992;2023-04-24T11:46:50;100354.56;;;16.13;77.76
57050;BME280;42935;50.966;16.992;2023-04-24T11:50:22;100352.16;;;15.85;79.70
57050;BME280;42935;50.966;16.992;2023-04-24T11:53:46;100352.20;;;16.09;81.67
57050;BME280;42935;50.966;16.992;2023-04-24T11:57:06;100352.99;;;15.96;83.41
57050;BME280;42935;50.966;16.992;2023-04-24T12:00:31;100350.56;;;15.94;84.00
57050;BME280;42935;50.966;16.992;2023-04-24T12:04:04;100349.63;;;15.80;86.38
57050;BME280;42935;50.966;16.992;2023-04-24T12:07:23;100344.85;;;15.81;89.77
57050;BME280;42935;50.966;16.992;2023-04-24T12:10:51;100325.77;;;15.61;88.80
57050;BME280;42935;50.966;16.992;2023-04-24T12:14:18;100333.88;;;15.52;88.72
57050;BME280;42935;50.966;16.992;2023-04-24T12:17:36;100337.00;;;15.56;85.61
57050;BME280;42935;50.966;16.992;2023-04-24T12:24:32;100338.19;;;15.59;90.59
57050;BME280;42935;50.966;16.992;2023-04-24T12:27:55;100339.33;;;15.59;93.43
57050;BME280;42935;50.966;16.992;2023-04-24T12:31:11;100341.24;;;15.52;97.36
57050;BME280;42935;50.966;16.992;2023-04-24T12:34:35;100336.06;;;15.31;96.57
57050;BME280;42935;50.966;16.992;2023-04-24T12:37:53;100340.41;;;15.20;93.19
57050;BME280;42935;50.966;16.992;2023-04-24T12:41:20;100336.68;;;15.20;89.81
57050;BME280;42935;50.966;16.992;2023-04-24T12:44:38;100335.59;;;15.17;86.79
57050;BME280;42935;50.966;16.992;2023-04-24T12:48:06;100323.76;;;15.17;89.48
57050;BME280;42935;50.966;16.992;2023-04-24T12:51:24;100337.26;;;15.12;88.33
57050;BME280;42935;50.966;16.992;2023-04-24T12:54:48;100334.34;;;15.03;88.56
57050;BME280;42935;50.966;16.992;2023-04-24T12:58:13;100335.29;;;14.93;89.06
57050;BME280;42935;50.966;16.992;2023-04-24T13:01:30;100332.29;;;14.76;95.68
57050;BME280;42935;50.966;16.992;2023-04-24T13:04:55;100340.57;;;14.51;100.00
57050;BME280;42935;50.966;16.992;2023-04-24T13:08:14;100337.91;;;14.28;100.00
57050;BME280;42935;50.966;16.992;2023-04-24T13:11:35;100339.93;;;14.37;100.00
57050;BME280;42935;50.966;16.992;2023-04-24T13:14:53;100328.81;;;14.14;99.38
57050;BME280;42935;50.966;16.992;2023-04-24T13:18:15;100290.38;;;13.23;99.92
57050;BME280;42935;50.966;16.992;2023-04-24T13:21:33;100338.97;;;13.36;95.76
57050;BME280;42935;50.966;16.992;2023-04-24T13:24:49;100346.46;;;13.09;96.69
57050;BME280;42935;50.966;16.992;2023-04-24T13:28:40;100345.96;;;12.99;91.49
57050;BME280;42935;50.966;16.992;2023-04-24T13:32:00;100335.00;;;12.70;88.85
57050;BME280;42935;50.966;16.992;2023-04-24T13:35:22;100341.69;;;12.59;92.37
57050;BME280;42935;50.966;16.992;2023-04-24T13:38:38;100345.50;;;12.40;97.06
57050;BME280;42935;50.966;16.992;2023-04-24T13:41:53;100347.92;;;12.15;100.00
57050;BME280;42935;50.966;16.992;2023-04-24T13:45:11;100345.13;;;12.02;100.00
57050;BME280;42935;50.966;16.992;2023-04-24T13:48:32;100334.71;;;11.94;100.00
57050;BME280;42935;50.966;16.992;2023-04-24T13:51:55;100336.30;;;11.90;100.00
57050;BME280;42935;50.966;16.992;2023-04-24T13:55:17;100342.88;;;11.84;100.00
57050;BME280;42935;50.966;16.992;2023-04-24T13:58:35;100344.34;;;11.67;100.00
57050;BME280;42935;50.966;16.992;2023-04-24T14:01:59;100315.70;;;11.57;100.00
57050;BME280;42935;50.966;16.992;2023-04-24T14:05:20;100348.40;;;11.85;100.00
57050;BME280;42935;50.966;16.992;2023-04-24T14:08:37;100347.75;;;11.82;100.00
57050;BME280;42935;50.966;16.992;2023-04-24T14:11:54;100339.45;;;11.73;100.00
57050;BME280;42935;50.966;16.992;2023-04-24T14:15:15;100346.08;;;11.94;100.00
57050;BME280;42935;50.966;16.992;2023-04-24T14:19:06;100352.90;;;12.05;100.00
57050;BME280;42935;50.966;16.992;2023-04-24T14:22:26;100341.03;;;11.60;100.00
57050;BME280;42935;50.966;16.992;2023-04-24T14:25:46;100348.80;;;11.39;100.00
57050;BME280;42935;50.966;16.992;2023-04-24T14:29:06;100347.84;;;11.26;100.00
57050;BME280;42935;50.966;16.992;2023-04-24T14:32:29;100347.09;;;11.25;100.00
57050;BME280;42935;50.966;16.992;2023-04-24T14:35:49;100334.07;;;11.43;100.00
57050;BME280;42935;50.966;16.992;2023-04-24T14:39:06;100341.05;;;11.47;100.00
57050;BME280;42935;50.966;16.992;2023-04-24T14:42:22;100338.09;;;11.40;100.00
57050;BME280;42935;50.966;16.992;2023-04-24T14:45:39;100344.35;;;11.42;100.00
57050;BME280;42935;50.966;16.992;2023-04-24T14:49:00;100350.32;;;11.50;100.00
57050;BME280;42935;50.966;16.992;2023-04-24T14:52:21;100339.10;;;11.29;100.00
57050;BME280;42935;50.966;16.992;2023-04-24T14:55:42;100355.81;;;11.29;100.00
57050;BME280;42935;50.966;16.992;2023-04-24T14:59:02;100358.67;;;11.26;100.00
57050;BME280;42935;50.966;16.992;2023-04-24T15:02:23;100354.25;;;11.18;100.00
57050;BME280;42935;50.966;16.992;2023-04-24T15:05:44;100363.56;;;11.27;100.00
57050;BME280;42935;50.966;16.992;2023-04-24T15:09:02;100357.29;;;11.21;100.00
57050;BME280;42935;50.966;16.992;2023-04-24T15:12:23;100360.29;;;11.23;100.00
57050;BME280;42935;50.966;16.992;2023-04-24T15:15:41;100359.78;;;11.18;100.00
57050;BME280;42935;50.966;16.992;2023-04-24T15:18:57;100368.40;;;11.23;100.00
57050;BME280;42935;50.966;16.992;2023-04-24T15:22:17;100367.30;;;11.22;100.00
57050;BME280;42935;50.966;16.992;2023-04-24T15:25:33;100369.75;;;11.28;100.00
57050;BME280;42935;50.966;16.992;2023-04-24T15:28:55;100370.16;;;11.35;100.00
57050;BME280;42935;50.966;16.992;2023-04-24T15:32:17;100356.40;;;11.37;100.00
57050;BME280;42935;50.966;16.992;2023-04-24T15:36:06;100362.80;;;11.47;100.00
57050;BME280;42935;50.966;16.992;2023-04-24T15:39:23;100351.41;;;11.61;100.00
57050;BME280;42935;50.966;16.992;2023-04-24T15:42:42;100364.70;;;11.75;100.00
57050;BME280;42935;50.966;16.992;2023-04-24T15:46:08;100360.96;;;11.83;100.00
57050;BME280;42935;50.966;16.992;2023-04-24T15:49:31;100357.27;;;11.90;100.00
57050;BME280;42935;50.966;16.992;2023-04-24T15:52:49;100349.97;;;12.21;100.00
57050;BME280;42935;50.966;16.992;2023-04-24T15:56:18;100349.59;;;11.94;100.00
57050;BME280;42935;50.966;16.992;2023-04-24T15:59:33;100358.43;;;11.94;100.00
57050;BME280;42935;50.966;16.992;2023-04-24T16:02:54;100350.79;;;11.68;100.00
57050;BME280;42935;50.966;16.992;2023-04-24T16:06:15;100354.27;;;11.74;100.00
57050;BME280;42935;50.966;16.992;2023-04-24T16:09:35;100361.55;;;11.79;100.00
57050;BME280;42935;50.966;16.992;2023-04-24T16:12:59;100359.34;;;11.98;100.00
57050;BME280;42935;50.966;16.992;2023-04-24T16:16:56;100351.44;;;12.01;100.00
57050;BME280;42935;50.966;16.992;2023-04-24T16:20:13;100368.69;;;11.81;100.00
57050;BME280;42935;50.966;16.992;2023-04-24T16:24:04;100367.07;;;11.64;100.00
57050;BME280;42935;50.966;16.992;2023-04-24T16:27:19;100365.57;;;11.70;100.00
57050;BME280;42935;50.966;16.992;2023-04-24T16:30:35;100360.81;;;11.89;100.00
57050;BME280;42935;50.966;16.992;2023-04-24T16:33:58;100334.89;;;11.39;100.00
57050;BME280;42935;50.966;16.992;2023-04-24T16:37:14;100373.05;;;11.69;100.00
57050;BME280;42935;50.966;16.992;2023-04-24T16:40:40;100371.03;;;11.64;100.00
57050;BME280;42935;50.966;16.992;2023-04-24T16:44:04;100340.34;;;11.25;100.00
57050;BME280;42935;50.966;16.992;2023-04-24T16:47:22;100364.16;;;11.35;100.00
57050;BME280;42935;50.966;16.992;2023-04-24T16:50:42;100366.80;;;11.28;100.00
57050;BME280;42935;50.966;16.992;2023-04-24T16:54:00;100366.13;;;11.30;100.00
57050;BME280;42935;50.966;16.992;2023-04-24T16:57:16;100369.81;;;11.40;100.00
57050;BME280;42935;50.966;16.992;2023-04-24T17:00:32;100358.38;;;11.33;100.00
57050;BME280;42935;50.966;16.992;2023-04-24T17:03:51;100360.27;;;11.58;100.00
57050;BME280;42935;50.966;16.992;2023-04-24T17:07:09;100343.09;;;11.85;100.00
57050;BME280;42935;50.966;16.992;2023-04-24T17:10:27;100337.43;;;12.06;100.00
57050;BME280;42935;50.966;16.992;2023-04-24T17:13:47;100351.21;;;12.02;100.00
57050;BME280;42935;50.966;16.992;2023-04-24T17:17:08;100354.30;;;11.65;100.00
57050;BME280;42935;50.966;16.992;2023-04-24T17:20:33;100352.11;;;11.65;100.00